sensor_id;sensor_type;location;lat;lon;timestamp;temperature;humidity
83808;SHT31;73824;40.292;17.998;2023-11-21T01:05:45;13.54;90.83
83808;SHT31;73824;40.292;17.998;2023-11-21T01:54:38;13.70;92.03
83808;SHT31;73824;40.292;17.998;2023-11-21T02:25:46;13.88;91.13
83808;SHT31;73824;40.292;17.998;2023-11-21T02:56:04;13.53;91.56
83808;SHT31;73824;40.292;17.998;2023-11-21T03:26:57;13.53;92.65
83808;SHT31;73824;40.292;17.998;2023-11-21T04:42:36;13.66;94.03
83808;SHT31;73824;40.292;17.998;2023-11-21T04:49:19;13.60;94.15
83808;SHT31;73824;40.292;17.998;2023-11-21T05:17:31;13.78;94.24
83808;SHT31;73824;40.292;17.998;2023-11-21T05:24:33;13.75;94.32
83808;SHT31;73824;40.292;17.998;2023-11-21T06:10:13;14.81;94.32
83808;SHT31;73824;40.292;17.998;2023-11-21T07:19:47;22.99;65.39
83808;SHT31;73824;40.292;17.998;2023-11-21T07:25:50;27.16;50.73
83808;SHT31;73824;40.292;17.998;2023-11-21T07:28:24;27.89;48.90
83808;SHT31;73824;40.292;17.998;2023-11-21T07:30:51;28.20;48.83
83808;SHT31;73824;40.292;17.998;2023-11-21T07:33:49;28.47;47.58
83808;SHT31;73824;40.292;17.998;2023-11-21T07:36:27;29.76;44.75
83808;SHT31;73824;40.292;17.998;2023-11-21T07:38:56;29.27;45.43
83808;SHT31;73824;40.292;17.998;2023-11-21T07:41:25;26.18;52.69
83808;SHT31;73824;40.292;17.998;2023-11-21T07:43:55;24.78;56.74
83808;SHT31;73824;40.292;17.998;2023-11-21T07:46:27;23.20;61.99
83808;SHT31;73824;40.292;17.998;2023-11-21T07:48:52;22.54;64.92
83808;SHT31;73824;40.292;17.998;2023-11-21T08:01:18;24.63;60.40
83808;SHT31;73824;40.292;17.998;2023-11-21T08:03:46;26.73;54.33
83808;SHT31;73824;40.292;17.998;2023-11-21T08:06:16;27.30;51.94
83808;SHT31;73824;40.292;17.998;2023-11-21T08:08:42;27.34;50.81
83808;SHT31;73824;40.292;17.998;2023-11-21T08:11:08;27.04;52.27
83808;SHT31;73824;40.292;17.998;2023-11-21T08:13:35;28.19;49.96
83808;SHT31;73824;40.292;17.998;2023-11-21T08:16:01;28.78;48.13
83808;SHT31;73824;40.292;17.998;2023-11-21T08:18:29;27.45;51.33
83808;SHT31;73824;40.292;17.998;2023-11-21T08:20:57;26.34;54.90
83808;SHT31;73824;40.292;17.998;2023-11-21T08:23:22;26.21;54.45
83808;SHT31;73824;40.292;17.998;2023-11-21T08:25:52;26.93;52.85
83808;SHT31;73824;40.292;17.998;2023-11-21T08:28:19;27.38;51.02
83808;SHT31;73824;40.292;17.998;2023-11-21T08:30:45;25.70;55.01
83808;SHT31;73824;40.292;17.998;2023-11-21T08:33:10;24.04;60.10
83808;SHT31;73824;40.292;17.998;2023-11-21T08:35:42;23.13;63.07
83808;SHT31;73824;40.292;17.998;2023-11-21T08:38:11;22.13;66.61
83808;SHT31;73824;40.292;17.998;2023-11-21T08:43:30;20.98;70.91
83808;SHT31;73824;40.292;17.998;2023-11-21T08:46:10;20.55;72.81
83808;SHT31;73824;40.292;17.998;2023-11-21T08:52:20;20.81;72.96
83808;SHT31;73824;40.292;17.998;2023-11-21T08:55:34;22.45;68.16
83808;SHT31;73824;40.292;17.998;2023-11-21T08:58:33;23.86;63.61
83808;SHT31;73824;40.292;17.998;2023-11-21T09:00:59;25.35;59.10
83808;SHT31;73824;40.292;17.998;2023-11-21T09:03:27;25.32;58.14
83808;SHT31;73824;40.292;17.998;2023-11-21T09:06:07;23.74;62.88
83808;SHT31;73824;40.292;17.998;2023-11-21T09:08:40;24.22;62.47
83808;SHT31;73824;40.292;17.998;2023-11-21T09:11:12;24.02;62.97
83808;SHT31;73824;40.292;17.998;2023-11-21T09:13:37;22.65;66.70
83808;SHT31;73824;40.292;17.998;2023-11-21T09:16:14;22.25;68.22
83808;SHT31;73824;40.292;17.998;2023-11-21T09:18:44;21.62;70.76
83808;SHT31;73824;40.292;17.998;2023-11-21T09:21:31;21.30;72.07
83808;SHT31;73824;40.292;17.998;2023-11-21T09:24:00;21.20;72.51
83808;SHT31;73824;40.292;17.998;2023-11-21T09:26:32;20.98;73.28
83808;SHT31;73824;40.292;17.998;2023-11-21T09:28:58;21.32;72.47
83808;SHT31;73824;40.292;17.998;2023-11-21T09:31:29;21.51;70.54
83808;SHT31;73824;40.292;17.998;2023-11-21T09:37:28;21.63;70.35
83808;SHT31;73824;40.292;17.998;2023-11-21T09:40:28;21.52;70.20
83808;SHT31;73824;40.292;17.998;2023-11-21T09:43:08;21.31;71.45
83808;SHT31;73824;40.292;17.998;2023-11-21T09:46:08;21.28;70.77
83808;SHT31;73824;40.292;17.998;2023-11-21T09:55:59;20.52;72.06
83808;SHT31;73824;40.292;17.998;2023-11-21T09:59:21;20.50;72.20
83808;SHT31;73824;40.292;17.998;2023-11-21T10:01:47;20.53;72.20
83808;SHT31;73824;40.292;17.998;2023-11-21T10:04:19;20.56;72.08
83808;SHT31;73824;40.292;17.998;2023-11-21T10:06:46;20.63;71.88
83808;SHT31;73824;40.292;17.998;2023-11-21T10:09:17;20.77;71.40
83808;SHT31;73824;40.292;17.998;2023-11-21T10:12:18;20.79;71.75
83808;SHT31;73824;40.292;17.998;2023-11-21T10:15:08;21.00;70.77
83808;SHT31;73824;40.292;17.998;2023-11-21T10:17:38;21.03;70.22
83808;SHT31;73824;40.292;17.998;2023-11-21T10:20:10;20.97;70.18
83808;SHT31;73824;40.292;17.998;2023-11-21T10:22:48;20.90;70.74
83808;SHT31;73824;40.292;17.998;2023-11-21T10:25:15;20.67;70.73
83808;SHT31;73824;40.292;17.998;2023-11-21T10:27:41;20.73;71.70
83808;SHT31;73824;40.292;17.998;2023-11-21T10:30:08;20.90;71.56
83808;SHT31;73824;40.292;17.998;2023-11-21T10:32:38;20.70;71.99
83808;SHT31;73824;40.292;17.998;2023-11-21T10:35:05;20.76;71.39
83808;SHT31;73824;40.292;17.998;2023-11-21T10:37:59;20.77;71.08
83808;SHT31;73824;40.292;17.998;2023-11-21T10:47:08;20.83;70.73
83808;SHT31;73824;40.292;17.998;2023-11-21T10:50:14;20.77;70.73
83808;SHT31;73824;40.292;17.998;2023-11-21T10:56:17;21.05;69.50
83808;SHT31;73824;40.292;17.998;2023-11-21T11:02:08;21.18;69.16
83808;SHT31;73824;40.292;17.998;2023-11-21T11:04:42;21.23;69.16
83808;SHT31;73824;40.292;17.998;2023-11-21T11:07:44;21.07;69.11
83808;SHT31;73824;40.292;17.998;2023-11-21T11:10:11;21.18;68.61
83808;SHT31;73824;40.292;17.998;2023-11-21T11:12:45;21.08;69.02
83808;SHT31;73824;40.292;17.998;2023-11-21T11:15:16;21.10;67.74
83808;SHT31;73824;40.292;17.998;2023-11-21T11:17:42;21.17;67.68
83808;SHT31;73824;40.292;17.998;2023-11-21T11:36:39;20.66;70.84
83808;SHT31;73824;40.292;17.998;2023-11-21T11:39:36;20.52;71.45
83808;SHT31;73824;40.292;17.998;2023-11-21T11:46:41;20.42;72.49
83808;SHT31;73824;40.292;17.998;2023-11-21T11:49:28;20.33;72.16
83808;SHT31;73824;40.292;17.998;2023-11-21T11:52:37;20.42;72.60
83808;SHT31;73824;40.292;17.998;2023-11-21T11:59:44;20.53;72.87
83808;SHT31;73824;40.292;17.998;2023-11-21T12:05:25;20.39;73.60
83808;SHT31;73824;40.292;17.998;2023-11-21T12:21:11;20.26;73.36
83808;SHT31;73824;40.292;17.998;2023-11-21T12:23:52;20.29;73.25
83808;SHT31;73824;40.292;17.998;2023-11-21T12:26:45;20.30;73.25
83808;SHT31;73824;40.292;17.998;2023-11-21T12:29:17;20.38;72.94
83808;SHT31;73824;40.292;17.998;2023-11-21T12:31:54;20.33;72.98
83808;SHT31;73824;40.292;17.998;2023-11-21T12:35:19;20.38;72.71
83808;SHT31;73824;40.292;17.998;2023-11-21T12:38:34;20.40;72.77
83808;SHT31;73824;40.292;17.998;2023-11-21T12:44:30;20.55;72.97
83808;SHT31;73824;40.292;17.998;2023-11-21T12:47:17;20.59;72.65
83808;SHT31;73824;40.292;17.998;2023-11-21T12:50:23;20.77;72.38
83808;SHT31;73824;40.292;17.998;2023-11-21T12:52:59;20.76;72.14
83808;SHT31;73824;40.292;17.998;2023-11-21T12:59:00;20.84;72.16
83808;SHT31;73824;40.292;17.998;2023-11-21T13:01:30;20.79;72.53
83808;SHT31;73824;40.292;17.998;2023-11-21T13:03:59;20.77;71.32
83808;SHT31;73824;40.292;17.998;2023-11-21T13:06:27;20.69;71.55
83808;SHT31;73824;40.292;17.998;2023-11-21T13:08:59;20.52;72.42
83808;SHT31;73824;40.292;17.998;2023-11-21T13:11:27;20.62;72.44
83808;SHT31;73824;40.292;17.998;2023-11-21T13:13:57;20.66;72.65
83808;SHT31;73824;40.292;17.998;2023-11-21T13:16:23;20.67;72.80
83808;SHT31;73824;40.292;17.998;2023-11-21T13:18:49;20.55;73.22
83808;SHT31;73824;40.292;17.998;2023-11-21T13:21:15;20.59;73.30
83808;SHT31;73824;40.292;17.998;2023-11-21T13:23:43;20.52;73.69
83808;SHT31;73824;40.292;17.998;2023-11-21T13:26:14;20.39;74.36
83808;SHT31;73824;40.292;17.998;2023-11-21T13:39:19;20.14;73.93
83808;SHT31;73824;40.292;17.998;2023-11-21T13:41:57;20.09;73.52
83808;SHT31;73824;40.292;17.998;2023-11-21T14:02:05;19.73;75.98
83808;SHT31;73824;40.292;17.998;2023-11-21T14:05:32;19.70;76.51
83808;SHT31;73824;40.292;17.998;2023-11-21T14:25:56;19.34;77.87
83808;SHT31;73824;40.292;17.998;2023-11-21T14:28:57;19.23;78.36
83808;SHT31;73824;40.292;17.998;2023-11-21T14:31:45;19.25;78.35
83808;SHT31;73824;40.292;17.998;2023-11-21T14:37:27;19.06;79.06
83808;SHT31;73824;40.292;17.998;2023-11-21T14:43:36;18.99;79.44
83808;SHT31;73824;40.292;17.998;2023-11-21T14:50:18;18.87;80.23
83808;SHT31;73824;40.292;17.998;2023-11-21T14:56:44;18.81;80.69
83808;SHT31;73824;40.292;17.998;2023-11-21T15:00:07;18.67;81.40
83808;SHT31;73824;40.292;17.998;2023-11-21T15:03:03;18.64;81.47
83808;SHT31;73824;40.292;17.998;2023-11-21T15:06:07;18.58;81.64
83808;SHT31;73824;40.292;17.998;2023-11-21T15:08:53;18.48;82.02
83808;SHT31;73824;40.292;17.998;2023-11-21T15:11:46;18.46;82.02
83808;SHT31;73824;40.292;17.998;2023-11-21T15:14:26;18.43;81.72
83808;SHT31;73824;40.292;17.998;2023-11-21T15:20:41;18.34;81.88
83808;SHT31;73824;40.292;17.998;2023-11-21T15:37:45;18.08;82.09
83808;SHT31;73824;40.292;17.998;2023-11-21T15:40:44;18.05;82.11
83808;SHT31;73824;40.292;17.998;2023-11-21T15:43:23;17.98;82.23
83808;SHT31;73824;40.292;17.998;2023-11-21T15:45:56;17.99;82.17
83808;SHT31;73824;40.292;17.998;2023-11-21T15:48:35;17.85;82.79
83808;SHT31;73824;40.292;17.998;2023-11-21T15:58:18;17.79;82.95
83808;SHT31;73824;40.292;17.998;2023-11-21T16:00:52;17.72;83.10
83808;SHT31;73824;40.292;17.998;2023-11-21T16:03:29;17.67;83.21
83808;SHT31;73824;40.292;17.998;2023-11-21T16:06:33;17.78;83.11
83808;SHT31;73824;40.292;17.998;2023-11-21T16:12:15;17.78;82.62
83808;SHT31;73824;40.292;17.998;2023-11-21T16:14:52;17.65;83.07
83808;SHT31;73824;40.292;17.998;2023-11-21T16:17:44;17.67;83.30
83808;SHT31;73824;40.292;17.998;2023-11-21T16:32:08;17.71;83.26
83808;SHT31;73824;40.292;17.998;2023-11-21T16:41:49;17.81;82.95
83808;SHT31;73824;40.292;17.998;2023-11-21T16:44:52;17.79;83.19
83808;SHT31;73824;40.292;17.998;2023-11-21T16:48:01;17.83;83.36
83808;SHT31;73824;40.292;17.998;2023-11-21T16:50:31;17.81;83.51
83808;SHT31;73824;40.292;17.998;2023-11-21T16:53:26;17.86;83.63
83808;SHT31;73824;40.292;17.998;2023-11-21T16:56:16;17.69;84.20
83808;SHT31;73824;40.292;17.998;2023-11-21T17:13:24;17.60;85.26
83808;SHT31;73824;40.292;17.998;2023-11-21T17:20:42;17.83;84.85
83808;SHT31;73824;40.292;17.998;2023-11-21T17:23:17;17.79;85.25
83808;SHT31;73824;40.292;17.998;2023-11-21T17:26:30;17.77;85.37
83808;SHT31;73824;40.292;17.998;2023-11-21T17:29:35;17.78;85.59
83808;SHT31;73824;40.292;17.998;2023-11-21T17:37:02;17.62;86.16
83808;SHT31;73824;40.292;17.998;2023-11-21T17:43:44;17.69;86.30
83808;SHT31;73824;40.292;17.998;2023-11-21T17:53:29;17.79;86.36
83808;SHT31;73824;40.292;17.998;2023-11-21T18:10:17;17.85;87.48
83808;SHT31;73824;40.292;17.998;2023-11-21T18:30:56;17.78;87.73
83808;SHT31;73824;40.292;17.998;2023-11-21T18:41:00;17.79;87.63
83808;SHT31;73824;40.292;17.998;2023-11-21T18:47:53;17.79;87.73
83808;SHT31;73824;40.292;17.998;2023-11-21T18:50:53;17.82;87.60
83808;SHT31;73824;40.292;17.998;2023-11-21T18:53:45;17.81;87.67
83808;SHT31;73824;40.292;17.998;2023-11-21T18:56:32;17.82;87.79
83808;SHT31;73824;40.292;17.998;2023-11-21T18:59:09;17.83;87.79
83808;SHT31;73824;40.292;17.998;2023-11-21T19:09:17;17.89;87.86
83808;SHT31;73824;40.292;17.998;2023-11-21T19:16:22;17.96;87.81
83808;SHT31;73824;40.292;17.998;2023-11-21T19:18:43;17.99;87.91
83808;SHT31;73824;40.292;17.998;2023-11-21T19:21:58;18.02;87.83
83808;SHT31;73824;40.292;17.998;2023-11-21T19:52:28;18.25;87.78
83808;SHT31;73824;40.292;17.998;2023-11-21T20:10:10;18.20;88.90
83808;SHT31;73824;40.292;17.998;2023-11-21T20:20:27;18.25;88.92
83808;SHT31;73824;40.292;17.998;2023-11-21T22:44:44;17.98;89.43
83808;SHT31;73824;40.292;17.998;2023-11-21T23:36:21;18.26;88.99
83808;SHT31;73824;40.292;17.998;2023-11-21T23:39:04;18.23;88.94
83808;SHT31;73824;40.292;17.998;2023-11-21T23:44:49;18.25;88.82
83808;SHT31;73824;40.292;17.998;2023-11-21T23:47:47;18.13;89.10
83808;SHT31;73824;40.292;17.998;2023-11-21T23:50:28;18.12;88.99
83808;SHT31;73824;40.292;17.998;2023-11-21T23:53:10;18.10;89.39
83808;SHT31;73824;40.292;17.998;2023-11-21T23:55:41;18.12;89.37
83808;SHT31;73824;40.292;17.998;2023-11-21T23:58:07;18.09;89.48
